sensor_id;sensor_type;location;lat;lon;timestamp;P1;durP1;ratioP1;P2;durP2;ratioP2
4148;SDS011;2088;51.032;7.082;2023-05-01T00:02:11;8.17;;;2.57;;
4148;SDS011;2088;51.032;7.082;2023-05-01T00:04:38;1.73;;;1.63;;
4148;SDS011;2088;51.032;7.082;2023-05-01T00:07:05;2.33;;;1.83;;
4148;SDS011;2088;51.032;7.082;2023-05-01T00:09:32;4.60;;;2.40;;
4148;SDS011;2088;51.032;7.082;2023-05-01T00:12:00;2.40;;;1.73;;
4148;SDS011;2088;51.032;7.082;2023-05-01T00:14:28;2.13;;;1.70;;
4148;SDS011;2088;51.032;7.082;2023-05-01T00:16:55;6.67;;;2.17;;
4148;SDS011;2088;51.032;7.082;2023-05-01T00:19:22;2.40;;;1.93;;
4148;SDS011;2088;51.032;7.082;2023-05-01T00:21:49;2.80;;;1.70;;
4148;SDS011;2088;51.032;7.082;2023-05-01T00:24:17;11.43;;;2.13;;
4148;SDS011;2088;51.032;7.082;2023-05-01T00:26:44;2.80;;;1.70;;
4148;SDS011;2088;51.032;7.082;2023-05-01T00:29:12;9.73;;;2.20;;
4148;SDS011;2088;51.032;7.082;2023-05-01T00:31:39;2.53;;;1.93;;
4148;SDS011;2088;51.032;7.082;2023-05-01T00:34:07;3.00;;;1.90;;
4148;SDS011;2088;51.032;7.082;2023-05-01T00:36:35;2.03;;;1.57;;
4148;SDS011;2088;51.032;7.082;2023-05-01T00:39:02;2.47;;;1.83;;
4148;SDS011;2088;51.032;7.082;2023-05-01T00:41:30;2.90;;;2.20;;
4148;SDS011;2088;51.032;7.082;2023-05-01T00:43:57;4.33;;;1.97;;
4148;SDS011;2088;51.032;7.082;2023-05-01T00:46:26;2.97;;;2.00;;
4148;SDS011;2088;51.032;7.082;2023-05-01T00:48:53;7.13;;;1.60;;
4148;SDS011;2088;51.032;7.082;2023-05-01T00:51:21;5.83;;;1.90;;
4148;SDS011;2088;51.032;7.082;2023-05-01T00:53:48;4.97;;;2.07;;
4148;SDS011;2088;51.032;7.082;2023-05-01T00:56:15;2.13;;;1.87;;
4148;SDS011;2088;51.032;7.082;2023-05-01T00:58:42;5.47;;;2.17;;
4148;SDS011;2088;51.032;7.082;2023-05-01T01:01:11;6.13;;;2.03;;
4148;SDS011;2088;51.032;7.082;2023-05-01T01:03:39;3.10;;;1.60;;
4148;SDS011;2088;51.032;7.082;2023-05-01T01:06:08;4.70;;;2.30;;
4148;SDS011;2088;51.032;7.082;2023-05-01T01:08:37;2.40;;;1.87;;
4148;SDS011;2088;51.032;7.082;2023-05-01T01:11:08;4.87;;;2.20;;
4148;SDS011;2088;51.032;7.082;2023-05-01T01:13:39;3.00;;;2.80;;
4148;SDS011;2088;51.032;7.082;2023-05-01T01:16:11;2.57;;;2.27;;
4148;SDS011;2088;51.032;7.082;2023-05-01T01:18:46;2.70;;;1.97;;
4148;SDS011;2088;51.032;7.082;2023-05-01T01:21:16;2.13;;;1.93;;
4148;SDS011;2088;51.032;7.082;2023-05-01T01:24:02;1.83;;;1.73;;
4148;SDS011;2088;51.032;7.082;2023-05-01T01:26:36;3.67;;;2.20;;
4148;SDS011;2088;51.032;7.082;2023-05-01T01:29:16;3.23;;;2.30;;
4148;SDS011;2088;51.032;7.082;2023-05-01T01:31:49;2.67;;;1.83;;
4148;SDS011;2088;51.032;7.082;2023-05-01T01:34:19;1.93;;;1.80;;
4148;SDS011;2088;51.032;7.082;2023-05-01T01:36:57;3.73;;;1.60;;
4148;SDS011;2088;51.032;7.082;2023-05-01T01:39:28;2.10;;;1.90;;
4148;SDS011;2088;51.032;7.082;2023-05-01T01:41:56;3.57;;;1.70;;
4148;SDS011;2088;51.032;7.082;2023-05-01T01:44:27;2.80;;;1.90;;
4148;SDS011;2088;51.032;7.082;2023-05-01T01:46:56;4.67;;;2.27;;
4148;SDS011;2088;51.032;7.082;2023-05-01T01:49:25;2.27;;;1.77;;
4148;SDS011;2088;51.032;7.082;2023-05-01T01:51:53;5.87;;;2.40;;
4148;SDS011;2088;51.032;7.082;2023-05-01T01:54:22;2.93;;;2.27;;
4148;SDS011;2088;51.032;7.082;2023-05-01T01:56:51;5.03;;;2.30;;
4148;SDS011;2088;51.032;7.082;2023-05-01T01:59:19;2.57;;;2.13;;
4148;SDS011;2088;51.032;7.082;2023-05-01T02:01:47;3.70;;;2.60;;
4148;SDS011;2088;51.032;7.082;2023-05-01T02:04:15;2.10;;;1.90;;
4148;SDS011;2088;51.032;7.082;2023-05-01T02:06:44;2.33;;;1.80;;
4148;SDS011;2088;51.032;7.082;2023-05-01T02:09:11;2.17;;;1.80;;
4148;SDS011;2088;51.032;7.082;2023-05-01T02:11:40;2.30;;;1.97;;
4148;SDS011;2088;51.032;7.082;2023-05-01T02:14:08;4.50;;;1.97;;
4148;SDS011;2088;51.032;7.082;2023-05-01T02:16:36;4.00;;;2.07;;
4148;SDS011;2088;51.032;7.082;2023-05-01T02:19:04;3.37;;;2.27;;
4148;SDS011;2088;51.032;7.082;2023-05-01T02:21:31;2.40;;;2.20;;
4148;SDS011;2088;51.032;7.082;2023-05-01T02:24:01;3.70;;;2.50;;
4148;SDS011;2088;51.032;7.082;2023-05-01T02:26:28;4.27;;;2.27;;
4148;SDS011;2088;51.032;7.082;2023-05-01T02:28:55;7.40;;;2.13;;
4148;SDS011;2088;51.032;7.082;2023-05-01T02:31:23;4.73;;;1.90;;
4148;SDS011;2088;51.032;7.082;2023-05-01T02:33:50;3.07;;;1.90;;
4148;SDS011;2088;51.032;7.082;2023-05-01T02:36:17;3.60;;;2.23;;
4148;SDS011;2088;51.032;7.082;2023-05-01T02:38:44;4.43;;;2.23;;
4148;SDS011;2088;51.032;7.082;2023-05-01T02:41:16;2.90;;;2.33;;
4148;SDS011;2088;51.032;7.082;2023-05-01T02:43:46;10.03;;;2.47;;
4148;SDS011;2088;51.032;7.082;2023-05-01T02:46:14;3.10;;;2.57;;
4148;SDS011;2088;51.032;7.082;2023-05-01T02:48:42;3.60;;;2.40;;
4148;SDS011;2088;51.032;7.082;2023-05-01T02:51:09;5.30;;;2.30;;
4148;SDS011;2088;51.032;7.082;2023-05-01T02:53:37;5.70;;;1.93;;
4148;SDS011;2088;51.032;7.082;2023-05-01T02:56:04;6.60;;;3.37;;
4148;SDS011;2088;51.032;7.082;2023-05-01T02:58:34;9.67;;;2.17;;
4148;SDS011;2088;51.032;7.082;2023-05-01T03:01:01;13.53;;;2.67;;
4148;SDS011;2088;51.032;7.082;2023-05-01T03:03:28;2.13;;;1.63;;
4148;SDS011;2088;51.032;7.082;2023-05-01T03:05:55;4.17;;;2.73;;
4148;SDS011;2088;51.032;7.082;2023-05-01T03:08:22;5.20;;;2.20;;
4148;SDS011;2088;51.032;7.082;2023-05-01T03:10:49;3.63;;;2.30;;
4148;SDS011;2088;51.032;7.082;2023-05-01T03:13:16;2.50;;;2.30;;
4148;SDS011;2088;51.032;7.082;2023-05-01T03:15:44;2.20;;;2.00;;
4148;SDS011;2088;51.032;7.082;2023-05-01T03:18:11;2.30;;;2.10;;
4148;SDS011;2088;51.032;7.082;2023-05-01T03:20:38;3.10;;;2.33;;
4148;SDS011;2088;51.032;7.082;2023-05-01T03:23:05;4.97;;;2.53;;
4148;SDS011;2088;51.032;7.082;2023-05-01T03:25:33;2.40;;;2.03;;
4148;SDS011;2088;51.032;7.082;2023-05-01T03:28:00;5.40;;;2.43;;
4148;SDS011;2088;51.032;7.082;2023-05-01T03:30:28;2.63;;;2.00;;
4148;SDS011;2088;51.032;7.082;2023-05-01T03:32:56;3.83;;;1.80;;
4148;SDS011;2088;51.032;7.082;2023-05-01T03:35:23;3.43;;;1.50;;
4148;SDS011;2088;51.032;7.082;2023-05-01T03:37:51;2.90;;;2.60;;
4148;SDS011;2088;51.032;7.082;2023-05-01T03:40:18;3.50;;;3.10;;
4148;SDS011;2088;51.032;7.082;2023-05-01T03:42:45;4.20;;;2.33;;
4148;SDS011;2088;51.032;7.082;2023-05-01T03:45:12;1.87;;;1.77;;
4148;SDS011;2088;51.032;7.082;2023-05-01T03:47:39;4.47;;;2.10;;
4148;SDS011;2088;51.032;7.082;2023-05-01T03:50:08;2.10;;;1.83;;
4148;SDS011;2088;51.032;7.082;2023-05-01T03:52:35;2.17;;;1.77;;
4148;SDS011;2088;51.032;7.082;2023-05-01T03:55:02;5.37;;;1.93;;
4148;SDS011;2088;51.032;7.082;2023-05-01T03:57:30;2.40;;;2.20;;
4148;SDS011;2088;51.032;7.082;2023-05-01T03:59:57;5.77;;;2.03;;
4148;SDS011;2088;51.032;7.082;2023-05-01T04:02:24;2.00;;;1.90;;
4148;SDS011;2088;51.032;7.082;2023-05-01T04:04:51;4.73;;;2.80;;
4148;SDS011;2088;51.032;7.082;2023-05-01T04:07:19;3.13;;;2.13;;
4148;SDS011;2088;51.032;7.082;2023-05-01T04:09:46;3.30;;;2.10;;
4148;SDS011;2088;51.032;7.082;2023-05-01T04:12:14;2.07;;;1.87;;
4148;SDS011;2088;51.032;7.082;2023-05-01T04:14:41;3.53;;;2.40;;
4148;SDS011;2088;51.032;7.082;2023-05-01T04:17:08;3.90;;;2.33;;
4148;SDS011;2088;51.032;7.082;2023-05-01T04:19:35;3.37;;;2.30;;
4148;SDS011;2088;51.032;7.082;2023-05-01T04:22:02;4.37;;;2.23;;
4148;SDS011;2088;51.032;7.082;2023-05-01T04:24:31;4.93;;;2.10;;
4148;SDS011;2088;51.032;7.082;2023-05-01T04:26:58;7.90;;;2.20;;
4148;SDS011;2088;51.032;7.082;2023-05-01T04:29:25;3.30;;;2.40;;
4148;SDS011;2088;51.032;7.082;2023-05-01T04:31:52;3.50;;;2.50;;
4148;SDS011;2088;51.032;7.082;2023-05-01T04:34:20;2.80;;;2.20;;
4148;SDS011;2088;51.032;7.082;2023-05-01T04:36:47;4.00;;;3.00;;
4148;SDS011;2088;51.032;7.082;2023-05-01T04:39:15;3.30;;;2.10;;
4148;SDS011;2088;51.032;7.082;2023-05-01T04:41:44;5.80;;;2.40;;
4148;SDS011;2088;51.032;7.082;2023-05-01T04:44:11;4.17;;;2.37;;
4148;SDS011;2088;51.032;7.082;2023-05-01T04:46:38;5.40;;;2.40;;
4148;SDS011;2088;51.032;7.082;2023-05-01T04:49:05;12.13;;;2.13;;
4148;SDS011;2088;51.032;7.082;2023-05-01T04:51:33;5.37;;;1.83;;
4148;SDS011;2088;51.032;7.082;2023-05-01T04:54:00;8.93;;;2.90;;
4148;SDS011;2088;51.032;7.082;2023-05-01T04:56:28;2.33;;;2.13;;
4148;SDS011;2088;51.032;7.082;2023-05-01T04:58:57;2.17;;;2.00;;
4148;SDS011;2088;51.032;7.082;2023-05-01T05:01:24;3.07;;;2.30;;
4148;SDS011;2088;51.032;7.082;2023-05-01T05:03:51;5.40;;;2.47;;
4148;SDS011;2088;51.032;7.082;2023-05-01T05:06:18;2.70;;;1.60;;
4148;SDS011;2088;51.032;7.082;2023-05-01T05:08:46;3.40;;;2.03;;
4148;SDS011;2088;51.032;7.082;2023-05-01T05:11:15;5.73;;;2.30;;
4148;SDS011;2088;51.032;7.082;2023-05-01T05:13:42;6.40;;;1.97;;
4148;SDS011;2088;51.032;7.082;2023-05-01T05:16:11;3.77;;;1.67;;
4148;SDS011;2088;51.032;7.082;2023-05-01T05:18:38;3.10;;;1.80;;
4148;SDS011;2088;51.032;7.082;2023-05-01T05:21:05;2.53;;;1.50;;
4148;SDS011;2088;51.032;7.082;2023-05-01T05:23:33;2.40;;;1.57;;
4148;SDS011;2088;51.032;7.082;2023-05-01T05:26:00;10.30;;;2.40;;
4148;SDS011;2088;51.032;7.082;2023-05-01T05:28:28;2.53;;;2.10;;
4148;SDS011;2088;51.032;7.082;2023-05-01T05:30:55;3.33;;;2.07;;
4148;SDS011;2088;51.032;7.082;2023-05-01T05:33:23;4.13;;;2.50;;
4148;SDS011;2088;51.032;7.082;2023-05-01T05:35:50;1.70;;;1.50;;
4148;SDS011;2088;51.032;7.082;2023-05-01T05:38:17;7.00;;;2.30;;
4148;SDS011;2088;51.032;7.082;2023-05-01T05:40:44;1.50;;;1.40;;
4148;SDS011;2088;51.032;7.082;2023-05-01T05:43:12;5.60;;;2.00;;
4148;SDS011;2088;51.032;7.082;2023-05-01T05:45:39;2.47;;;1.93;;
4148;SDS011;2088;51.032;7.082;2023-05-01T05:48:06;2.17;;;1.77;;
4148;SDS011;2088;51.032;7.082;2023-05-01T05:50:34;2.97;;;2.30;;
4148;SDS011;2088;51.032;7.082;2023-05-01T05:53:01;9.70;;;2.47;;
4148;SDS011;2088;51.032;7.082;2023-05-01T05:55:28;7.03;;;2.40;;
4148;SDS011;2088;51.032;7.082;2023-05-01T05:57:55;2.23;;;1.80;;
4148;SDS011;2088;51.032;7.082;2023-05-01T06:00:22;2.00;;;1.90;;
4148;SDS011;2088;51.032;7.082;2023-05-01T06:02:49;3.70;;;1.60;;
4148;SDS011;2088;51.032;7.082;2023-05-01T06:05:16;4.10;;;1.83;;
4148;SDS011;2088;51.032;7.082;2023-05-01T06:07:45;4.10;;;1.70;;
4148;SDS011;2088;51.032;7.082;2023-05-01T06:10:12;2.30;;;1.93;;
4148;SDS011;2088;51.032;7.082;2023-05-01T06:12:39;4.23;;;2.13;;
4148;SDS011;2088;51.032;7.082;2023-05-01T06:15:06;2.53;;;1.90;;
4148;SDS011;2088;51.032;7.082;2023-05-01T06:17:33;2.50;;;2.00;;
4148;SDS011;2088;51.032;7.082;2023-05-01T06:20:01;5.10;;;2.77;;
4148;SDS011;2088;51.032;7.082;2023-05-01T06:22:30;8.40;;;4.10;;
4148;SDS011;2088;51.032;7.082;2023-05-01T06:24:58;5.80;;;3.33;;
4148;SDS011;2088;51.032;7.082;2023-05-01T06:27:25;3.77;;;2.03;;
4148;SDS011;2088;51.032;7.082;2023-05-01T06:29:52;2.10;;;1.60;;
4148;SDS011;2088;51.032;7.082;2023-05-01T06:32:19;8.97;;;2.53;;
4148;SDS011;2088;51.032;7.082;2023-05-01T06:34:47;1.73;;;1.63;;
4148;SDS011;2088;51.032;7.082;2023-05-01T06:37:14;4.73;;;2.10;;
4148;SDS011;2088;51.032;7.082;2023-05-01T06:39:41;6.73;;;2.40;;
4148;SDS011;2088;51.032;7.082;2023-05-01T06:42:09;2.17;;;1.97;;
4148;SDS011;2088;51.032;7.082;2023-05-01T06:44:40;3.60;;;2.00;;
4148;SDS011;2088;51.032;7.082;2023-05-01T06:47:07;4.43;;;2.07;;
4148;SDS011;2088;51.032;7.082;2023-05-01T06:49:34;2.60;;;1.87;;
4148;SDS011;2088;51.032;7.082;2023-05-01T06:52:01;5.00;;;1.80;;
4148;SDS011;2088;51.032;7.082;2023-05-01T06:54:28;9.27;;;2.07;;
4148;SDS011;2088;51.032;7.082;2023-05-01T06:56:55;5.27;;;2.40;;
4148;SDS011;2088;51.032;7.082;2023-05-01T06:59:23;3.17;;;1.80;;
4148;SDS011;2088;51.032;7.082;2023-05-01T07:01:50;2.23;;;1.63;;
4148;SDS011;2088;51.032;7.082;2023-05-01T07:04:18;2.93;;;1.80;;
4148;SDS011;2088;51.032;7.082;2023-05-01T07:06:45;2.33;;;1.40;;
4148;SDS011;2088;51.032;7.082;2023-05-01T07:09:12;2.10;;;1.70;;
4148;SDS011;2088;51.032;7.082;2023-05-01T07:11:39;2.70;;;1.50;;
4148;SDS011;2088;51.032;7.082;2023-05-01T07:14:07;3.00;;;1.90;;
4148;SDS011;2088;51.032;7.082;2023-05-01T07:16:35;6.77;;;3.13;;
4148;SDS011;2088;51.032;7.082;2023-05-01T07:19:02;3.90;;;2.23;;
4148;SDS011;2088;51.032;7.082;2023-05-01T07:21:29;3.60;;;2.40;;
4148;SDS011;2088;51.032;7.082;2023-05-01T07:23:57;1.73;;;1.63;;
4148;SDS011;2088;51.032;7.082;2023-05-01T07:26:24;2.63;;;2.30;;
4148;SDS011;2088;51.032;7.082;2023-05-01T07:28:52;3.33;;;1.73;;
4148;SDS011;2088;51.032;7.082;2023-05-01T07:31:19;6.53;;;2.10;;
4148;SDS011;2088;51.032;7.082;2023-05-01T07:33:48;2.57;;;2.37;;
4148;SDS011;2088;51.032;7.082;2023-05-01T07:36:15;2.20;;;2.00;;
4148;SDS011;2088;51.032;7.082;2023-05-01T07:38:44;4.00;;;2.20;;
4148;SDS011;2088;51.032;7.082;2023-05-01T07:41:11;3.93;;;2.13;;
4148;SDS011;2088;51.032;7.082;2023-05-01T07:43:38;4.53;;;2.27;;
4148;SDS011;2088;51.032;7.082;2023-05-01T07:46:05;1.93;;;1.73;;
4148;SDS011;2088;51.032;7.082;2023-05-01T07:48:32;2.47;;;2.27;;
4148;SDS011;2088;51.032;7.082;2023-05-01T07:51:01;5.10;;;2.43;;
4148;SDS011;2088;51.032;7.082;2023-05-01T07:53:28;6.50;;;2.57;;
4148;SDS011;2088;51.032;7.082;2023-05-01T07:56:03;2.50;;;2.03;;
4148;SDS011;2088;51.032;7.082;2023-05-01T07:58:31;2.40;;;2.20;;
4148;SDS011;2088;51.032;7.082;2023-05-01T08:00:58;10.43;;;2.67;;
4148;SDS011;2088;51.032;7.082;2023-05-01T08:03:26;4.20;;;2.40;;
4148;SDS011;2088;51.032;7.082;2023-05-01T08:05:54;5.83;;;2.00;;
4148;SDS011;2088;51.032;7.082;2023-05-01T08:08:23;6.00;;;2.90;;
4148;SDS011;2088;51.032;7.082;2023-05-01T08:10:50;3.20;;;2.30;;
4148;SDS011;2088;51.032;7.082;2023-05-01T08:13:17;3.60;;;2.10;;
4148;SDS011;2088;51.032;7.082;2023-05-01T08:15:45;3.00;;;2.13;;
4148;SDS011;2088;51.032;7.082;2023-05-01T08:18:12;3.03;;;2.00;;
4148;SDS011;2088;51.032;7.082;2023-05-01T08:20:44;3.60;;;2.70;;
4148;SDS011;2088;51.032;7.082;2023-05-01T08:23:12;4.00;;;2.20;;
4148;SDS011;2088;51.032;7.082;2023-05-01T08:25:40;3.93;;;2.03;;
4148;SDS011;2088;51.032;7.082;2023-05-01T08:28:08;2.40;;;2.20;;
4148;SDS011;2088;51.032;7.082;2023-05-01T08:30:35;2.80;;;2.40;;
4148;SDS011;2088;51.032;7.082;2023-05-01T08:33:02;2.53;;;1.83;;
4148;SDS011;2088;51.032;7.082;2023-05-01T08:35:30;2.70;;;2.17;;
4148;SDS011;2088;51.032;7.082;2023-05-01T08:37:57;5.97;;;2.57;;
4148;SDS011;2088;51.032;7.082;2023-05-01T08:40:25;4.47;;;2.47;;
4148;SDS011;2088;51.032;7.082;2023-05-01T08:42:54;3.70;;;2.43;;
4148;SDS011;2088;51.032;7.082;2023-05-01T08:45:21;2.33;;;2.13;;
4148;SDS011;2088;51.032;7.082;2023-05-01T08:47:50;3.00;;;1.90;;
4148;SDS011;2088;51.032;7.082;2023-05-01T08:50:19;4.73;;;2.53;;
4148;SDS011;2088;51.032;7.082;2023-05-01T08:52:46;4.10;;;2.17;;
4148;SDS011;2088;51.032;7.082;2023-05-01T08:55:14;3.00;;;2.20;;
4148;SDS011;2088;51.032;7.082;2023-05-01T08:57:43;5.10;;;2.30;;
4148;SDS011;2088;51.032;7.082;2023-05-01T09:00:13;5.20;;;3.20;;
4148;SDS011;2088;51.032;7.082;2023-05-01T09:02:43;4.40;;;2.00;;
4148;SDS011;2088;51.032;7.082;2023-05-01T09:05:12;7.40;;;2.90;;
4148;SDS011;2088;51.032;7.082;2023-05-01T09:07:39;3.60;;;2.17;;
4148;SDS011;2088;51.032;7.082;2023-05-01T09:10:06;6.33;;;2.20;;
4148;SDS011;2088;51.032;7.082;2023-05-01T09:12:33;3.13;;;2.10;;
4148;SDS011;2088;51.032;7.082;2023-05-01T09:15:01;3.30;;;1.90;;
4148;SDS011;2088;51.032;7.082;2023-05-01T09:17:30;5.00;;;2.40;;
4148;SDS011;2088;51.032;7.082;2023-05-01T09:19:57;3.60;;;2.80;;
4148;SDS011;2088;51.032;7.082;2023-05-01T09:22:24;2.60;;;2.00;;
4148;SDS011;2088;51.032;7.082;2023-05-01T09:24:52;5.43;;;2.33;;
4148;SDS011;2088;51.032;7.082;2023-05-01T09:27:19;2.73;;;2.20;;
4148;SDS011;2088;51.032;7.082;2023-05-01T09:29:46;2.53;;;1.80;;
4148;SDS011;2088;51.032;7.082;2023-05-01T09:32:14;8.10;;;2.47;;
4148;SDS011;2088;51.032;7.082;2023-05-01T09:34:43;2.95;;;2.35;;
4148;SDS011;2088;51.032;7.082;2023-05-01T09:37:23;4.30;;;2.10;;
4148;SDS011;2088;51.032;7.082;2023-05-01T09:39:59;3.43;;;2.47;;
4148;SDS011;2088;51.032;7.082;2023-05-01T09:42:26;4.53;;;2.40;;
4148;SDS011;2088;51.032;7.082;2023-05-01T09:44:53;2.20;;;2.00;;
4148;SDS011;2088;51.032;7.082;2023-05-01T09:47:20;2.93;;;2.30;;
4148;SDS011;2088;51.032;7.082;2023-05-01T09:49:49;6.90;;;2.83;;
4148;SDS011;2088;51.032;7.082;2023-05-01T09:52:16;5.27;;;2.23;;
4148;SDS011;2088;51.032;7.082;2023-05-01T09:54:43;3.27;;;2.83;;
4148;SDS011;2088;51.032;7.082;2023-05-01T09:57:10;10.77;;;3.00;;
4148;SDS011;2088;51.032;7.082;2023-05-01T09:59:37;2.60;;;2.30;;
4148;SDS011;2088;51.032;7.082;2023-05-01T10:02:05;7.40;;;2.20;;
4148;SDS011;2088;51.032;7.082;2023-05-01T10:04:33;6.90;;;2.40;;
4148;SDS011;2088;51.032;7.082;2023-05-01T10:07:11;2.50;;;2.13;;
4148;SDS011;2088;51.032;7.082;2023-05-01T10:09:38;2.03;;;1.80;;
4148;SDS011;2088;51.032;7.082;2023-05-01T10:12:06;4.60;;;1.80;;
4148;SDS011;2088;51.032;7.082;2023-05-01T10:14:33;2.80;;;1.83;;
4148;SDS011;2088;51.032;7.082;2023-05-01T10:17:08;4.33;;;2.20;;
4148;SDS011;2088;51.032;7.082;2023-05-01T10:19:43;2.30;;;1.77;;
4148;SDS011;2088;51.032;7.082;2023-05-01T10:22:12;3.60;;;1.90;;
4148;SDS011;2088;51.032;7.082;2023-05-01T10:24:39;3.43;;;2.50;;
4148;SDS011;2088;51.032;7.082;2023-05-01T10:27:07;3.87;;;1.93;;
4148;SDS011;2088;51.032;7.082;2023-05-01T10:29:34;5.57;;;2.00;;
4148;SDS011;2088;51.032;7.082;2023-05-01T10:32:02;4.77;;;2.10;;
4148;SDS011;2088;51.032;7.082;2023-05-01T10:34:30;2.10;;;1.60;;
4148;SDS011;2088;51.032;7.082;2023-05-01T10:37:01;2.43;;;1.50;;
4148;SDS011;2088;51.032;7.082;2023-05-01T10:39:30;1.93;;;1.73;;
4148;SDS011;2088;51.032;7.082;2023-05-01T10:42:00;3.70;;;2.00;;
4148;SDS011;2088;51.032;7.082;2023-05-01T10:44:28;8.50;;;2.00;;
4148;SDS011;2088;51.032;7.082;2023-05-01T10:46:55;2.50;;;1.77;;
4148;SDS011;2088;51.032;7.082;2023-05-01T10:49:22;2.47;;;1.60;;
4148;SDS011;2088;51.032;7.082;2023-05-01T10:51:56;3.13;;;2.20;;
4148;SDS011;2088;51.032;7.082;2023-05-01T10:54:24;5.53;;;2.23;;
4148;SDS011;2088;51.032;7.082;2023-05-01T10:56:53;2.63;;;1.80;;
4148;SDS011;2088;51.032;7.082;2023-05-01T10:59:20;3.93;;;2.10;;
4148;SDS011;2088;51.032;7.082;2023-05-01T11:01:48;2.97;;;1.90;;
4148;SDS011;2088;51.032;7.082;2023-05-01T11:07:12;3.80;;;1.87;;
4148;SDS011;2088;51.032;7.082;2023-05-01T11:09:42;3.60;;;1.80;;
4148;SDS011;2088;51.032;7.082;2023-05-01T11:12:11;2.03;;;1.63;;
4148;SDS011;2088;51.032;7.082;2023-05-01T11:17:43;2.70;;;2.00;;
4148;SDS011;2088;51.032;7.082;2023-05-01T11:20:11;3.23;;;1.60;;
4148;SDS011;2088;51.032;7.082;2023-05-01T11:22:43;3.70;;;2.03;;
4148;SDS011;2088;51.032;7.082;2023-05-01T11:25:17;3.40;;;1.70;;
4148;SDS011;2088;51.032;7.082;2023-05-01T11:27:47;3.33;;;1.40;;
4148;SDS011;2088;51.032;7.082;2023-05-01T11:30:16;2.40;;;1.90;;
4148;SDS011;2088;51.032;7.082;2023-05-01T11:32:43;4.53;;;1.50;;
4148;SDS011;2088;51.032;7.082;2023-05-01T11:35:15;2.73;;;1.80;;
4148;SDS011;2088;51.032;7.082;2023-05-01T11:37:43;2.90;;;1.93;;
4148;SDS011;2088;51.032;7.082;2023-05-01T11:40:17;2.33;;;1.50;;
4148;SDS011;2088;51.032;7.082;2023-05-01T11:42:45;1.93;;;1.67;;
4148;SDS011;2088;51.032;7.082;2023-05-01T11:45:14;4.80;;;1.43;;
4148;SDS011;2088;51.032;7.082;2023-05-01T11:47:41;2.40;;;1.40;;
4148;SDS011;2088;51.032;7.082;2023-05-01T11:50:08;2.07;;;1.40;;
4148;SDS011;2088;51.032;7.082;2023-05-01T11:52:40;1.83;;;1.50;;
4148;SDS011;2088;51.032;7.082;2023-05-01T11:55:08;3.30;;;2.00;;
4148;SDS011;2088;51.032;7.082;2023-05-01T11:57:43;1.63;;;1.53;;
4148;SDS011;2088;51.032;7.082;2023-05-01T12:00:11;1.60;;;1.20;;
4148;SDS011;2088;51.032;7.082;2023-05-01T12:02:40;3.30;;;1.80;;
4148;SDS011;2088;51.032;7.082;2023-05-01T12:05:13;1.60;;;1.37;;
4148;SDS011;2088;51.032;7.082;2023-05-01T12:07:41;1.33;;;1.00;;
4148;SDS011;2088;51.032;7.082;2023-05-01T12:10:08;1.83;;;0.93;;
4148;SDS011;2088;51.032;7.082;2023-05-01T12:12:35;1.30;;;1.00;;
4148;SDS011;2088;51.032;7.082;2023-05-01T12:15:03;1.37;;;1.13;;
4148;SDS011;2088;51.032;7.082;2023-05-01T12:17:30;1.43;;;1.30;;
4148;SDS011;2088;51.032;7.082;2023-05-01T12:19:58;1.47;;;1.10;;
4148;SDS011;2088;51.032;7.082;2023-05-01T12:22:26;3.53;;;1.30;;
4148;SDS011;2088;51.032;7.082;2023-05-01T12:24:53;10.20;;;1.70;;
4148;SDS011;2088;51.032;7.082;2023-05-01T12:27:20;1.97;;;1.53;;
4148;SDS011;2088;51.032;7.082;2023-05-01T12:29:47;2.43;;;1.50;;
4148;SDS011;2088;51.032;7.082;2023-05-01T12:32:14;4.50;;;2.30;;
4148;SDS011;2088;51.032;7.082;2023-05-01T12:34:42;1.87;;;1.50;;
4148;SDS011;2088;51.032;7.082;2023-05-01T12:37:10;3.43;;;2.20;;
4148;SDS011;2088;51.032;7.082;2023-05-01T12:39:37;2.47;;;1.70;;
4148;SDS011;2088;51.032;7.082;2023-05-01T12:42:12;1.73;;;1.30;;
4148;SDS011;2088;51.032;7.082;2023-05-01T12:44:40;2.07;;;1.40;;
4148;SDS011;2088;51.032;7.082;2023-05-01T12:47:08;2.83;;;1.70;;
4148;SDS011;2088;51.032;7.082;2023-05-01T12:49:36;3.27;;;1.27;;
4148;SDS011;2088;51.032;7.082;2023-05-01T12:52:04;3.40;;;2.07;;
4148;SDS011;2088;51.032;7.082;2023-05-01T12:54:33;1.60;;;1.33;;
4148;SDS011;2088;51.032;7.082;2023-05-01T12:57:05;5.20;;;1.50;;
4148;SDS011;2088;51.032;7.082;2023-05-01T12:59:34;3.00;;;1.60;;
4148;SDS011;2088;51.032;7.082;2023-05-01T13:02:01;5.83;;;1.70;;
4148;SDS011;2088;51.032;7.082;2023-05-01T13:04:29;2.63;;;1.50;;
4148;SDS011;2088;51.032;7.082;2023-05-01T13:06:56;1.97;;;1.20;;
4148;SDS011;2088;51.032;7.082;2023-05-01T13:09:24;1.77;;;1.33;;
4148;SDS011;2088;51.032;7.082;2023-05-01T13:11:56;1.50;;;1.20;;
4148;SDS011;2088;51.032;7.082;2023-05-01T13:14:24;1.80;;;1.50;;
4148;SDS011;2088;51.032;7.082;2023-05-01T13:16:52;1.50;;;1.20;;
4148;SDS011;2088;51.032;7.082;2023-05-01T13:19:23;1.83;;;1.47;;
4148;SDS011;2088;51.032;7.082;2023-05-01T13:21:52;1.40;;;1.10;;
4148;SDS011;2088;51.032;7.082;2023-05-01T13:24:20;3.00;;;1.47;;
4148;SDS011;2088;51.032;7.082;2023-05-01T13:26:47;1.90;;;1.07;;
4148;SDS011;2088;51.032;7.082;2023-05-01T13:29:15;1.40;;;1.30;;
4148;SDS011;2088;51.032;7.082;2023-05-01T13:31:42;2.80;;;1.43;;
4148;SDS011;2088;51.032;7.082;2023-05-01T13:34:10;2.10;;;1.10;;
4148;SDS011;2088;51.032;7.082;2023-05-01T13:36:37;1.63;;;0.90;;
4148;SDS011;2088;51.032;7.082;2023-05-01T13:39:05;1.33;;;1.03;;
4148;SDS011;2088;51.032;7.082;2023-05-01T13:41:32;2.40;;;1.30;;
4148;SDS011;2088;51.032;7.082;2023-05-01T13:44:00;1.50;;;1.27;;
4148;SDS011;2088;51.032;7.082;2023-05-01T13:46:28;3.00;;;1.00;;
4148;SDS011;2088;51.032;7.082;2023-05-01T13:48:57;1.40;;;1.13;;
4148;SDS011;2088;51.032;7.082;2023-05-01T13:51:29;1.33;;;1.20;;
4148;SDS011;2088;51.032;7.082;2023-05-01T13:53:57;1.20;;;1.10;;
4148;SDS011;2088;51.032;7.082;2023-05-01T13:56:24;2.67;;;1.00;;
4148;SDS011;2088;51.032;7.082;2023-05-01T13:58:51;1.30;;;1.10;;
4148;SDS011;2088;51.032;7.082;2023-05-01T14:01:18;3.03;;;1.33;;
4148;SDS011;2088;51.032;7.082;2023-05-01T14:03:47;2.37;;;1.20;;
4148;SDS011;2088;51.032;7.082;2023-05-01T14:06:15;1.30;;;1.07;;
4148;SDS011;2088;51.032;7.082;2023-05-01T14:08:43;2.80;;;1.17;;
4148;SDS011;2088;51.032;7.082;2023-05-01T14:11:10;3.97;;;1.60;;
4148;SDS011;2088;51.032;7.082;2023-05-01T14:13:38;1.90;;;1.07;;
4148;SDS011;2088;51.032;7.082;2023-05-01T14:16:06;1.77;;;1.30;;
4148;SDS011;2088;51.032;7.082;2023-05-01T14:18:34;1.63;;;1.20;;
4148;SDS011;2088;51.032;7.082;2023-05-01T14:21:03;1.30;;;1.20;;
4148;SDS011;2088;51.032;7.082;2023-05-01T14:23:30;2.30;;;1.67;;
4148;SDS011;2088;51.032;7.082;2023-05-01T14:25:58;2.10;;;1.50;;
4148;SDS011;2088;51.032;7.082;2023-05-01T14:28:26;4.40;;;1.80;;
4148;SDS011;2088;51.032;7.082;2023-05-01T14:30:53;2.43;;;2.17;;
4148;SDS011;2088;51.032;7.082;2023-05-01T14:33:20;3.40;;;2.30;;
4148;SDS011;2088;51.032;7.082;2023-05-01T14:35:48;3.13;;;2.27;;
4148;SDS011;2088;51.032;7.082;2023-05-01T14:38:17;3.17;;;2.10;;
4148;SDS011;2088;51.032;7.082;2023-05-01T14:40:44;4.60;;;2.50;;
4148;SDS011;2088;51.032;7.082;2023-05-01T14:43:12;3.17;;;2.50;;
4148;SDS011;2088;51.032;7.082;2023-05-01T14:45:40;3.00;;;2.30;;
4148;SDS011;2088;51.032;7.082;2023-05-01T14:48:07;2.37;;;2.10;;
4148;SDS011;2088;51.032;7.082;2023-05-01T14:50:35;4.10;;;1.97;;
4148;SDS011;2088;51.032;7.082;2023-05-01T14:53:02;2.30;;;1.80;;
4148;SDS011;2088;51.032;7.082;2023-05-01T14:55:31;2.17;;;1.97;;
4148;SDS011;2088;51.032;7.082;2023-05-01T14:57:59;3.53;;;2.10;;
4148;SDS011;2088;51.032;7.082;2023-05-01T15:00:26;4.03;;;1.87;;
4148;SDS011;2088;51.032;7.082;2023-05-01T15:02:53;2.27;;;2.07;;
4148;SDS011;2088;51.032;7.082;2023-05-01T15:05:20;7.13;;;2.00;;
4148;SDS011;2088;51.032;7.082;2023-05-01T15:07:49;2.00;;;1.80;;
4148;SDS011;2088;51.032;7.082;2023-05-01T15:10:16;3.27;;;2.27;;
4148;SDS011;2088;51.032;7.082;2023-05-01T15:12:44;2.70;;;2.53;;
4148;SDS011;2088;51.032;7.082;2023-05-01T15:15:12;5.60;;;2.73;;
4148;SDS011;2088;51.032;7.082;2023-05-01T15:17:39;6.20;;;3.33;;
4148;SDS011;2088;51.032;7.082;2023-05-01T15:20:06;5.90;;;3.77;;
4148;SDS011;2088;51.032;7.082;2023-05-01T15:22:34;5.70;;;4.63;;
4148;SDS011;2088;51.032;7.082;2023-05-01T15:25:01;6.43;;;5.23;;
4148;SDS011;2088;51.032;7.082;2023-05-01T15:27:28;7.70;;;5.27;;